createdAt,value
2023-03-13T00:01:15.721Z,99810.15
2023-03-13T00:03:48.394Z,99810.16
2023-03-13T00:06:21.215Z,99808.01
2023-03-13T00:08:53.667Z,99810.60
2023-03-13T00:11:27.896Z,99801.33
2023-03-13T00:14:01.412Z,99803.39
2023-03-13T00:16:35.779Z,99806.23
2023-03-13T00:19:09.306Z,99807.27
2023-03-13T00:21:42.398Z,99818.23
2023-03-13T00:24:15.281Z,99820.88
2023-03-13T00:26:48.352Z,99820.28
2023-03-13T00:29:20.719Z,99816.40
2023-03-13T00:31:53.287Z,99812.83
2023-03-13T00:34:27.605Z,99811.52
2023-03-13T00:37:00.687Z,99806.69
2023-03-13T00:39:33.627Z,99801.88
2023-03-13T00:42:07.860Z,99796.02
2023-03-13T00:44:40.203Z,99792.15
2023-03-13T00:47:13.152Z,99783.73
2023-03-13T00:49:45.694Z,99780.09
2023-03-13T00:52:20.981Z,99783.26
2023-03-13T00:54:51.923Z,99784.60
2023-03-13T00:57:24.431Z,99785.84
2023-03-13T00:59:56.852Z,99784.60
2023-03-13T01:02:31.968Z,99782.94
2023-03-13T01:05:06.081Z,99782.02
2023-03-13T01:07:38.747Z,99778.23
2023-03-13T01:10:12.755Z,99778.63
2023-03-13T01:12:45.418Z,99766.77
2023-03-13T01:15:19.707Z,99784.23
2023-03-13T01:17:53.767Z,99784.34
2023-03-13T01:20:26.300Z,99779.09
2023-03-13T01:22:58.885Z,99778.60
2023-03-13T01:25:34.012Z,99776.45
2023-03-13T01:28:06.877Z,99774.77
2023-03-13T01:30:39.346Z,99777.83
2023-03-13T01:33:11.764Z,99784.92
2023-03-13T01:35:44.676Z,99757.98
2023-03-13T01:38:18.086Z,99764.63
2023-03-13T01:40:51.296Z,99762.67
2023-03-13T01:43:26.889Z,99757.17
2023-03-13T01:46:13.755Z,99747.73
2023-03-13T01:48:56.716Z,99739.36
2023-03-13T01:51:31.899Z,99743.29
2023-03-13T01:54:09.429Z,99737.73
2023-03-13T01:56:46.949Z,99741.46
2023-03-13T01:59:24.680Z,99739.00
2023-03-13T02:02:01.743Z,99735.19
2023-03-13T02:04:40.727Z,99732.42
2023-03-13T02:07:17.571Z,99729.21
2023-03-13T02:09:54.804Z,99736.50
2023-03-13T02:12:31.799Z,99747.89
2023-03-13T02:15:09.351Z,99745.20
2023-03-13T02:17:43.836Z,99744.42
2023-03-13T02:20:22.422Z,99740.42
2023-03-13T02:23:03.943Z,99742.67
2023-03-13T02:25:44.073Z,99737.66
2023-03-13T02:28:20.715Z,99732.26
2023-03-13T02:30:56.668Z,99729.86
2023-03-13T02:33:33.518Z,99717.29
2023-03-13T02:36:07.789Z,99725.91
2023-03-13T02:38:46.728Z,99725.45
2023-03-13T02:41:22.220Z,99732.66
2023-03-13T02:43:54.853Z,99736.37
2023-03-13T02:46:27.328Z,99733.96
2023-03-13T02:49:02.933Z,99738.51
2023-03-13T02:51:41.236Z,99743.50
2023-03-13T02:54:18.293Z,99739.50
2023-03-13T02:56:53.447Z,99754.08
2023-03-13T02:59:26.445Z,99747.45
2023-03-13T03:01:58.967Z,99748.52
2023-03-13T03:04:32.123Z,99747.09
2023-03-13T03:07:04.717Z,99744.13
2023-03-13T03:09:37.117Z,99745.37
2023-03-13T03:12:13.146Z,99732.02
2023-03-13T03:14:45.822Z,99750.09
2023-03-13T03:17:19.520Z,99746.92
2023-03-13T03:19:51.943Z,99739.70
2023-03-13T03:22:25.765Z,99738.21
2023-03-13T03:24:58.226Z,99732.16
2023-03-13T03:27:32.101Z,99733.23
2023-03-13T03:30:05.521Z,99731.13
2023-03-13T03:32:38.697Z,99729.67
2023-03-13T03:35:11.551Z,99724.38
2023-03-13T03:37:44.057Z,99718.20
2023-03-13T03:40:21.920Z,99719.77
2023-03-13T03:42:54.501Z,99717.50
2023-03-13T03:45:27.069Z,99711.20
2023-03-13T03:48:01.864Z,99711.45
2023-03-13T03:50:38.470Z,99708.55
2023-03-13T03:53:11.376Z,99706.64
2023-03-13T03:55:44.067Z,99709.48
2023-03-13T03:58:16.628Z,99701.40
2023-03-13T04:01:11.400Z,99702.75
2023-03-13T04:03:44.292Z,99698.27
2023-03-13T04:06:18.331Z,99688.77
2023-03-13T04:08:51.507Z,99683.58
2023-03-13T04:11:26.454Z,99682.34
2023-03-13T04:14:00.769Z,99682.14
2023-03-13T04:16:33.458Z,99678.33
2023-03-13T04:19:10.298Z,99680.23
2023-03-13T04:21:42.789Z,99674.44
2023-03-13T04:24:19.653Z,99669.27
2023-03-13T04:26:52.247Z,99664.19
2023-03-13T04:29:24.856Z,99657.45
2023-03-13T04:32:05.034Z,99647.00
2023-03-13T04:34:57.823Z,99658.36
2023-03-13T04:37:50.978Z,99662.48
2023-03-13T04:40:34.582Z,99654.15
2023-03-13T04:43:27.308Z,99654.98
2023-03-13T04:46:11.924Z,99650.80
2023-03-13T04:49:07.092Z,99648.45
2023-03-13T04:52:13.606Z,99644.31
2023-03-13T04:55:24.481Z,99645.02
2023-03-13T04:58:20.149Z,99645.89
2023-03-13T05:01:13.019Z,99646.29
2023-03-13T05:04:09.757Z,99651.23
2023-03-13T05:07:05.308Z,99647.98
2023-03-13T05:09:37.945Z,99642.53
2023-03-13T05:12:36.557Z,99641.80
2023-03-13T05:15:32.156Z,99639.40
2023-03-13T05:18:25.796Z,99638.38
2023-03-13T05:21:11.855Z,99636.64
2023-03-13T05:24:04.677Z,99616.27
2023-03-13T05:26:57.474Z,99621.89
2023-03-13T05:29:52.168Z,99620.35
2023-03-13T05:32:41.780Z,99619.55
2023-03-13T05:35:35.098Z,99623.60
2023-03-13T05:38:39.810Z,99609.48
2023-03-13T05:41:44.411Z,99603.70
2023-03-13T05:44:37.492Z,99611.54
2023-03-13T05:47:24.522Z,99606.48
2023-03-13T05:50:13.065Z,99592.98
2023-03-13T05:53:15.425Z,99597.62
2023-03-13T05:56:24.485Z,99594.44
2023-03-13T05:59:07.967Z,99588.46
2023-03-13T06:01:55.257Z,99581.60
2023-03-13T06:04:42.720Z,99570.45
2023-03-13T06:07:16.775Z,99581.40
2023-03-13T06:09:51.696Z,99578.75
2023-03-13T06:12:24.948Z,99575.27
2023-03-13T06:14:57.506Z,99572.91
2023-03-13T06:17:50.756Z,99572.30
2023-03-13T06:20:23.779Z,99568.00
2023-03-13T06:22:56.209Z,99562.78
2023-03-13T06:25:28.848Z,99562.52
2023-03-13T06:28:01.435Z,99564.14
2023-03-13T06:30:33.894Z,99566.74
2023-03-13T06:33:06.624Z,99565.38
2023-03-13T06:35:53.392Z,99560.96
2023-03-13T06:38:28.956Z,99553.95
2023-03-13T06:41:01.835Z,99547.56
2023-03-13T06:43:35.143Z,99548.73
2023-03-13T06:46:08.741Z,99531.70
2023-03-13T06:48:41.143Z,99535.88
2023-03-13T06:51:16.618Z,99537.64
2023-03-13T06:53:53.036Z,99529.27
2023-03-13T06:56:26.039Z,99514.59
2023-03-13T06:58:59.958Z,99531.83
2023-03-13T07:01:33.044Z,99527.80
2023-03-13T07:04:05.652Z,99520.04
2023-03-13T07:06:38.355Z,99523.80
2023-03-13T07:09:11.717Z,99516.08
2023-03-13T07:11:44.130Z,99515.23
2023-03-13T07:14:17.904Z,99513.05
2023-03-13T07:16:50.545Z,99504.55
2023-03-13T07:19:23.348Z,99498.73
2023-03-13T07:21:57.048Z,99497.48
2023-03-13T07:24:29.586Z,99498.09
2023-03-13T07:27:07.617Z,99493.09
2023-03-13T07:29:40.532Z,99498.86
2023-03-13T07:32:12.906Z,99499.05
2023-03-13T07:34:45.832Z,99493.63
2023-03-13T07:37:19.421Z,99489.02
2023-03-13T07:39:52.190Z,99479.77
2023-03-13T07:42:24.587Z,99477.00
2023-03-13T07:44:57.948Z,99478.08
2023-03-13T07:47:30.353Z,99469.88
2023-03-13T07:50:02.968Z,99464.95
2023-03-13T07:52:35.426Z,99463.42
2023-03-13T07:55:08.698Z,99456.67
2023-03-13T07:57:41.099Z,99451.06
2023-03-13T08:00:18.759Z,99447.38
2023-03-13T08:02:51.155Z,99438.41
2023-03-13T08:05:23.758Z,99433.31
2023-03-13T08:07:56.381Z,99432.52
2023-03-13T08:10:29.070Z,99430.40
2023-03-13T08:13:01.536Z,99426.40
2023-03-13T08:15:35.441Z,99413.96
2023-03-13T08:18:08.280Z,99412.20
2023-03-13T08:20:40.710Z,99388.80
2023-03-13T08:23:13.269Z,99398.75
2023-03-13T08:25:45.800Z,99396.91
2023-03-13T08:28:18.190Z,99396.75
2023-03-13T08:30:50.756Z,99394.99
2023-03-13T08:33:23.248Z,99404.33
2023-03-13T08:35:55.790Z,99387.91
2023-03-13T08:38:28.644Z,99385.91
2023-03-13T08:41:01.310Z,99380.10
2023-03-13T08:43:33.974Z,99374.36
2023-03-13T08:46:07.349Z,99367.85
2023-03-13T08:48:39.804Z,99365.86
2023-03-13T08:51:14.330Z,99365.60
2023-03-13T08:53:47.372Z,99362.69
2023-03-13T08:56:21.199Z,99361.00
2023-03-13T08:58:54.833Z,99359.11
2023-03-13T09:01:29.963Z,99356.17
2023-03-13T09:04:04.455Z,99348.98
2023-03-13T09:06:39.288Z,99347.19
2023-03-13T09:09:14.486Z,99336.31
2023-03-13T09:11:47.243Z,99329.02
2023-03-13T09:14:19.668Z,99322.76
2023-03-13T09:16:52.207Z,99316.76
2023-03-13T09:19:24.697Z,99308.17
2023-03-13T09:21:57.169Z,99306.44
2023-03-13T09:24:31.273Z,99298.38
2023-03-13T09:27:03.987Z,99298.83
2023-03-13T09:29:40.045Z,99295.35
2023-03-13T09:32:12.916Z,99292.09
2023-03-13T09:34:45.432Z,99271.33
2023-03-13T09:37:17.977Z,99283.65
2023-03-13T09:39:51.316Z,99269.92
2023-03-13T09:42:37.123Z,99265.46
2023-03-13T09:45:15.318Z,99252.12
2023-03-13T09:47:51.412Z,99250.48
2023-03-13T09:50:28.737Z,99248.89
2023-03-13T09:53:07.417Z,99254.70
2023-03-13T09:55:43.139Z,99252.89
2023-03-13T09:58:20.502Z,99251.95
2023-03-13T10:01:00.204Z,99251.43
2023-03-13T10:03:40.189Z,99247.88
2023-03-13T10:06:19.602Z,99245.77
2023-03-13T10:08:52.906Z,99238.85
2023-03-13T10:11:31.130Z,99238.63
2023-03-13T10:14:19.316Z,99227.65
2023-03-13T10:16:56.373Z,99224.34
2023-03-13T10:19:37.845Z,99224.63
2023-03-13T10:22:16.712Z,99225.38
2023-03-13T10:24:56.038Z,99222.33
2023-03-13T10:27:28.857Z,99210.62
2023-03-13T10:30:01.283Z,99222.89
2023-03-13T10:32:34.138Z,99216.87
2023-03-13T10:35:08.245Z,99216.11
2023-03-13T10:37:45.839Z,99210.01
2023-03-13T10:40:25.794Z,99204.61
2023-03-13T10:43:06.509Z,99205.17
2023-03-13T10:45:40.284Z,99207.66
2023-03-13T10:48:20.254Z,99205.11
2023-03-13T10:50:54.853Z,99207.05
2023-03-13T10:53:34.359Z,99207.59
2023-03-13T10:56:13.424Z,99203.79
2023-03-13T10:58:49.015Z,99195.35
2023-03-13T11:01:25.506Z,99185.66
2023-03-13T11:04:01.339Z,99187.57
2023-03-13T11:06:35.717Z,99175.17
2023-03-13T11:09:14.794Z,99184.59
2023-03-13T11:11:52.719Z,99177.92
2023-03-13T11:14:27.204Z,99166.02
2023-03-13T11:17:01.946Z,99164.89
2023-03-13T11:19:43.770Z,99158.55
2023-03-13T11:22:47.891Z,99160.55
2023-03-13T11:25:28.978Z,99169.27
2023-03-13T11:28:21.741Z,99162.84
2023-03-13T11:31:04.776Z,99158.23
2023-03-13T11:33:53.242Z,99155.06
2023-03-13T11:36:32.671Z,99149.52
2023-03-13T11:39:22.972Z,99148.20
2023-03-13T11:42:05.273Z,99145.58
2023-03-13T11:44:49.702Z,99150.06
2023-03-13T11:47:35.988Z,99147.08
2023-03-13T11:50:27.716Z,99138.42
2023-03-13T11:53:23.355Z,99141.82
2023-03-13T11:56:07.560Z,99139.21
2023-03-13T11:58:52.081Z,99122.63
2023-03-13T12:01:28.959Z,99136.60
2023-03-13T12:04:06.434Z,99135.16
2023-03-13T12:06:43.020Z,99132.87
2023-03-13T12:09:23.131Z,99131.60
2023-03-13T12:12:03.635Z,99129.06
2023-03-13T12:14:39.775Z,99121.62
2023-03-13T12:17:17.236Z,99113.91
2023-03-13T12:19:55.143Z,99118.36
2023-03-13T12:22:39.083Z,99110.82
2023-03-13T12:25:19.367Z,99107.96
2023-03-13T12:27:57.919Z,99107.02
2023-03-13T12:30:39.385Z,99106.14
2023-03-13T12:33:24.679Z,99104.01
2023-03-13T12:36:03.984Z,99095.52
2023-03-13T12:38:42.432Z,99091.63
2023-03-13T12:41:25.720Z,99084.73
2023-03-13T12:44:08.433Z,99085.99
2023-03-13T12:46:47.346Z,99082.20
2023-03-13T12:49:47.610Z,99063.55
2023-03-13T12:52:49.857Z,99075.91
2023-03-13T12:55:48.150Z,99076.80
2023-03-13T12:58:31.229Z,99064.02
2023-03-13T13:01:08.202Z,99048.85
2023-03-13T13:03:46.638Z,99036.31
2023-03-13T13:06:19.751Z,99034.64
2023-03-13T13:09:09.517Z,99029.31
2023-03-13T13:11:52.426Z,99024.29
2023-03-13T13:15:04.047Z,99019.13
2023-03-13T13:17:49.061Z,99016.04
2023-03-13T13:20:34.149Z,99007.14
2023-03-13T13:23:28.448Z,99007.84
2023-03-13T13:26:50.144Z,99000.78
2023-03-13T13:29:59.145Z,98997.67
2023-03-13T13:32:40.715Z,98996.36
2023-03-13T13:35:34.550Z,99001.11
2023-03-13T13:38:34.472Z,98995.16
2023-03-13T13:41:22.018Z,98989.46
2023-03-13T13:44:25.075Z,98996.64
2023-03-13T13:47:02.059Z,98993.06
2023-03-13T13:49:58.060Z,98990.11
2023-03-13T13:52:44.037Z,98988.84
2023-03-13T13:55:46.946Z,98986.91
2023-03-13T13:58:25.765Z,98992.75
2023-03-13T14:01:02.769Z,98999.85
2023-03-13T14:03:42.242Z,98998.98
2023-03-13T14:06:22.571Z,98999.48
2023-03-13T14:08:58.155Z,99004.20
2023-03-13T14:11:35.737Z,99008.69
2023-03-13T14:14:18.620Z,99000.05
2023-03-13T14:16:52.793Z,99002.58
2023-03-13T14:19:31.186Z,98975.86
2023-03-13T14:22:06.601Z,98994.98
2023-03-13T14:24:39.592Z,98987.71
2023-03-13T14:27:21.712Z,98981.85
2023-03-13T14:30:09.216Z,98981.41
2023-03-13T14:32:42.162Z,98978.11
2023-03-13T14:35:19.423Z,98975.83
2023-03-13T14:37:54.578Z,98974.32
2023-03-13T14:40:32.564Z,98972.36
2023-03-13T14:43:05.967Z,98969.60
2023-03-13T14:45:39.179Z,98962.30
2023-03-13T14:48:20.318Z,98957.36
2023-03-13T14:51:05.417Z,98956.43
2023-03-13T14:53:59.308Z,98959.11
2023-03-13T14:56:34.828Z,98957.52
2023-03-13T14:59:16.859Z,98957.52
2023-03-13T15:01:59.156Z,98954.89
2023-03-13T15:04:53.323Z,98958.57
2023-03-13T15:07:27.191Z,98953.19
2023-03-13T15:10:00.893Z,98955.56
2023-03-13T15:12:43.648Z,98956.51
2023-03-13T15:15:16.605Z,98952.44
2023-03-13T15:17:49.393Z,98947.95
2023-03-13T15:20:23.180Z,98954.48
2023-03-13T15:22:55.700Z,98952.67
2023-03-13T15:25:28.337Z,98954.88
2023-03-13T15:28:02.820Z,98954.30
2023-03-13T15:30:33.984Z,98933.05
2023-03-13T15:33:06.497Z,98942.77
2023-03-13T15:35:39.307Z,98941.02
2023-03-13T15:38:16.399Z,98935.40
2023-03-13T15:40:49.962Z,98932.64
2023-03-13T15:43:23.935Z,98928.02
2023-03-13T15:45:56.742Z,98930.52
2023-03-13T15:48:31.345Z,98911.30
2023-03-13T15:51:04.803Z,98925.16
2023-03-13T15:53:37.949Z,98914.91
2023-03-13T15:56:16.683Z,98918.09
2023-03-13T15:58:51.254Z,98931.70
2023-03-13T16:01:23.331Z,98925.30
2023-03-13T16:03:56.573Z,98919.84
2023-03-13T16:06:31.604Z,98919.38
2023-03-13T16:09:07.022Z,98917.71
2023-03-13T16:11:39.773Z,98916.70
2023-03-13T16:14:12.219Z,98916.25
2023-03-13T16:16:45.412Z,98909.11
2023-03-13T16:19:18.075Z,98907.77
2023-03-13T16:21:52.765Z,98909.03
2023-03-13T16:24:25.512Z,98906.36
2023-03-13T16:26:58.204Z,98907.52
2023-03-13T16:29:31.129Z,98902.89
2023-03-13T16:32:04.167Z,98907.53
2023-03-13T16:34:36.818Z,98912.65
2023-03-13T16:37:16.649Z,98913.96
2023-03-13T16:39:50.796Z,98909.80
2023-03-13T16:42:23.347Z,98908.98
2023-03-13T16:44:56.108Z,98914.10
2023-03-13T16:47:31.761Z,98918.77
2023-03-13T16:50:04.517Z,98918.80
2023-03-13T16:52:37.500Z,98920.67
2023-03-13T16:55:11.457Z,98911.67
2023-03-13T16:57:44.083Z,98909.32
2023-03-13T17:00:23.875Z,98904.66
2023-03-13T17:02:57.741Z,98897.28
2023-03-13T17:05:30.409Z,98911.85
2023-03-13T17:08:04.053Z,98913.77
2023-03-13T17:10:36.566Z,98914.41
2023-03-13T17:13:09.073Z,98910.52
2023-03-13T17:15:41.717Z,98908.27
2023-03-13T17:18:14.984Z,98907.16
2023-03-13T17:20:48.493Z,98897.79
2023-03-13T17:23:21.212Z,98901.55
2023-03-13T17:25:53.903Z,98905.80
2023-03-13T17:28:26.438Z,98889.98
2023-03-13T17:30:59.185Z,98895.39
2023-03-13T17:33:32.062Z,98900.88
2023-03-13T17:36:07.589Z,98896.40
2023-03-13T17:38:40.139Z,98898.96
2023-03-13T17:41:15.107Z,98901.20
2023-03-13T17:43:48.200Z,98897.80
2023-03-13T17:46:23.856Z,98901.14
2023-03-13T17:48:56.943Z,98890.96
2023-03-13T17:51:32.197Z,98889.10
2023-03-13T17:54:05.343Z,98889.30
2023-03-13T17:56:41.237Z,98879.45
2023-03-13T17:59:16.784Z,98874.64
2023-03-13T18:01:49.791Z,98874.47
2023-03-13T18:04:22.701Z,98876.94
2023-03-13T18:06:55.138Z,98880.95
2023-03-13T18:09:27.648Z,98875.46
2023-03-13T18:12:00.126Z,98872.45
2023-03-13T18:14:32.914Z,98857.42
2023-03-13T18:17:16.411Z,98867.71
2023-03-13T18:19:50.218Z,98865.67
2023-03-13T18:22:24.787Z,98860.39
2023-03-13T18:24:58.168Z,98860.72
2023-03-13T18:27:30.799Z,98860.90
2023-03-13T18:30:03.679Z,98851.02
2023-03-13T18:32:36.732Z,98845.78
2023-03-13T18:35:11.154Z,98840.01
2023-03-13T18:37:45.144Z,98841.23
2023-03-13T18:40:24.542Z,98846.60
2023-03-13T18:42:57.332Z,98853.27
2023-03-13T18:45:29.924Z,98842.88
2023-03-13T18:48:02.409Z,98857.52
2023-03-13T18:50:35.305Z,98848.98
2023-03-13T18:53:08.046Z,98832.91
2023-03-13T18:55:40.691Z,98824.10
2023-03-13T18:58:14.744Z,98825.52
2023-03-13T19:00:47.525Z,98835.05
2023-03-13T19:03:21.814Z,98839.23
2023-03-13T19:05:55.258Z,98836.56
2023-03-13T19:08:27.912Z,98828.52
2023-03-13T19:11:00.787Z,98827.93
2023-03-13T19:13:38.380Z,98833.89
2023-03-13T19:16:17.065Z,98829.60
2023-03-13T19:18:51.694Z,98823.92
2023-03-13T19:21:26.436Z,98818.45
2023-03-13T19:23:58.635Z,98832.13
2023-03-13T19:26:34.626Z,98826.50
2023-03-13T19:29:14.068Z,98825.67
2023-03-13T19:31:47.237Z,98804.59
2023-03-13T19:34:20.536Z,98817.70
2023-03-13T19:36:54.061Z,98809.55
2023-03-13T19:39:27.353Z,98812.42
2023-03-13T19:42:00.982Z,98796.59
2023-03-13T19:44:37.190Z,98807.80
2023-03-13T19:47:15.640Z,98805.98
2023-03-13T19:49:51.101Z,98795.96
2023-03-13T19:52:25.368Z,98791.16
2023-03-13T19:55:05.177Z,98784.44
2023-03-13T19:57:38.517Z,98772.98
2023-03-13T20:00:19.834Z,98775.79
2023-03-13T20:02:55.051Z,98758.02
2023-03-13T20:05:28.544Z,98759.80
2023-03-13T20:08:01.447Z,98762.17
2023-03-13T20:10:34.359Z,98761.17
2023-03-13T20:13:06.876Z,98752.52
2023-03-13T20:15:39.654Z,98750.17
2023-03-13T20:18:12.258Z,98729.88
2023-03-13T20:20:44.674Z,98749.82
2023-03-13T20:23:17.395Z,98755.02
2023-03-13T20:25:49.924Z,98749.70
2023-03-13T20:28:22.447Z,98758.59
2023-03-13T20:30:57.139Z,98764.45
2023-03-13T20:33:28.036Z,98761.15
2023-03-13T20:36:02.991Z,98765.29
2023-03-13T20:38:36.482Z,98744.42
2023-03-13T20:41:11.856Z,98751.64
2023-03-13T20:43:44.788Z,98756.55
2023-03-13T20:46:17.256Z,98754.12
2023-03-13T20:48:50.230Z,98760.33
2023-03-13T20:51:22.628Z,98747.37
2023-03-13T20:53:55.183Z,98740.25
2023-03-13T20:56:28.464Z,98742.64
2023-03-13T20:59:02.041Z,98728.98
2023-03-13T21:01:35.152Z,98732.34
2023-03-13T21:04:07.973Z,98731.81
2023-03-13T21:06:40.605Z,98726.23
2023-03-13T21:09:13.991Z,98733.92
2023-03-13T21:11:46.860Z,98743.55
2023-03-13T21:14:19.464Z,98745.99
2023-03-13T21:16:52.748Z,98733.92
2023-03-13T21:19:25.346Z,98713.50
2023-03-13T21:21:58.021Z,98714.77
2023-03-13T21:24:30.784Z,98718.86
2023-03-13T21:27:03.301Z,98707.63
2023-03-13T21:29:36.153Z,98700.45
2023-03-13T21:32:09.325Z,98696.11
2023-03-13T21:34:43.409Z,98689.71
2023-03-13T21:37:17.823Z,98691.50
2023-03-13T21:39:53.378Z,98689.59
2023-03-13T21:42:25.880Z,98677.88
2023-03-13T21:44:59.222Z,98663.60
2023-03-13T21:47:36.644Z,98657.81
2023-03-13T21:50:12.050Z,98662.04
2023-03-13T21:52:45.623Z,98657.69
2023-03-13T21:55:18.204Z,98650.83
2023-03-13T21:57:50.667Z,98645.93
2023-03-13T22:00:25.649Z,98636.36
2023-03-13T22:02:58.337Z,98624.02
2023-03-13T22:05:30.883Z,98623.34
2023-03-13T22:08:03.721Z,98617.99
2023-03-13T22:10:38.049Z,98619.62
2023-03-13T22:13:12.118Z,98613.16
2023-03-13T22:15:46.710Z,98608.42
2023-03-13T22:18:17.693Z,98613.84
2023-03-13T22:20:50.385Z,98611.80
2023-03-13T22:23:22.883Z,98610.86
2023-03-13T22:25:58.142Z,98618.16
2023-03-13T22:28:30.812Z,98600.74
2023-03-13T22:31:05.245Z,98607.13
2023-03-13T22:33:38.155Z,98604.44
2023-03-13T22:36:12.840Z,98600.55
2023-03-13T22:38:45.338Z,98605.08
2023-03-13T22:41:19.714Z,98609.16
2023-03-13T22:43:52.086Z,98612.05
2023-03-13T22:46:24.610Z,98608.46
2023-03-13T22:48:57.009Z,98619.39
2023-03-13T22:51:29.645Z,98623.56
2023-03-13T22:54:02.053Z,98616.09
2023-03-13T22:56:34.758Z,98613.21
2023-03-13T22:59:07.751Z,98613.77
2023-03-13T23:01:40.221Z,98594.67
2023-03-13T23:04:13.077Z,98616.40
2023-03-13T23:06:45.533Z,98631.12
2023-03-13T23:09:18.119Z,98621.23
2023-03-13T23:11:51.050Z,98630.58
2023-03-13T23:14:23.565Z,98620.82
2023-03-13T23:16:56.224Z,98626.31
2023-03-13T23:19:28.985Z,98627.02
2023-03-13T23:22:01.546Z,98623.73
2023-03-13T23:24:34.114Z,98619.05
2023-03-13T23:27:06.886Z,98616.08
2023-03-13T23:29:39.511Z,98612.63
2023-03-13T23:32:12.100Z,98615.20
2023-03-13T23:34:44.780Z,98612.27
2023-03-13T23:37:17.718Z,98614.23
2023-03-13T23:39:52.945Z,98627.52
2023-03-13T23:42:25.922Z,98621.51
2023-03-13T23:44:58.549Z,98609.48
2023-03-13T23:47:31.172Z,98618.10
2023-03-13T23:50:05.348Z,98623.96
2023-03-13T23:52:38.751Z,98633.41
2023-03-13T23:55:12.522Z,98633.63
2023-03-13T23:57:44.940Z,98635.23
